sensor_id;sensor_type;location;lat;lon;timestamp;pressure;altitude;pressure_sealevel;temperature;humidity
55550;BME280;41397;49.972;18.944;2023-03-01T00:02:57;103163.52;;;4.43;55.66
55550;BME280;41397;49.972;18.944;2023-03-01T00:05:58;103160.76;;;4.46;55.47
55550;BME280;41397;49.972;18.944;2023-03-01T00:09:00;103162.57;;;4.44;55.61
55550;BME280;41397;49.972;18.944;2023-03-01T00:12:01;103166.19;;;4.44;55.50
55550;BME280;41397;49.972;18.944;2023-03-01T00:15:03;103158.97;;;4.43;55.70
55550;BME280;41397;49.972;18.944;2023-03-01T00:18:05;103158.97;;;4.45;55.53
55550;BME280;41397;49.972;18.944;2023-03-01T00:21:07;103158.97;;;4.45;55.45
55550;BME280;41397;49.972;18.944;2023-03-01T00:24:09;103158.05;;;4.44;55.88
55550;BME280;41397;49.972;18.944;2023-03-01T00:27:11;103162.57;;;4.44;55.77
55550;BME280;41397;49.972;18.944;2023-03-01T00:30:13;103164.39;;;4.43;55.62
55550;BME280;41397;49.972;18.944;2023-03-01T00:33:14;103163.52;;;4.41;55.74
55550;BME280;41397;49.972;18.944;2023-03-01T00:36:16;103155.45;;;4.40;55.49
55550;BME280;41397;49.972;18.944;2023-03-01T00:39:17;103159.05;;;4.39;55.94
55550;BME280;41397;49.972;18.944;2023-03-01T00:42:19;103150.93;;;4.39;55.78
55550;BME280;41397;49.972;18.944;2023-03-01T00:45:21;103151.88;;;4.36;56.35
55550;BME280;41397;49.972;18.944;2023-03-01T00:48:22;103159.16;;;4.33;55.88
55550;BME280;41397;49.972;18.944;2023-03-01T00:51:27;103145.81;;;4.23;55.98
55550;BME280;41397;49.972;18.944;2023-03-01T00:54:29;103134.03;;;4.25;55.95
55550;BME280;41397;49.972;18.944;2023-03-01T00:57:30;103130.38;;;4.27;55.84
55550;BME280;41397;49.972;18.944;2023-03-01T01:00:32;103130.38;;;4.27;56.00
55550;BME280;41397;49.972;18.944;2023-03-01T01:03:34;103123.14;;;4.28;56.06
55550;BME280;41397;49.972;18.944;2023-03-01T01:06:41;103124.01;;;4.30;55.90
55550;BME280;41397;49.972;18.944;2023-03-01T01:09:43;103121.33;;;4.28;56.16
55550;BME280;41397;49.972;18.944;2023-03-01T01:12:45;103133.97;;;4.29;55.98
55550;BME280;41397;49.972;18.944;2023-03-01T01:15:47;103137.56;;;4.30;56.36
55550;BME280;41397;49.972;18.944;2023-03-01T01:18:49;103134.84;;;4.31;56.20
55550;BME280;41397;49.972;18.944;2023-03-01T01:21:50;103137.57;;;4.28;56.22
55550;BME280;41397;49.972;18.944;2023-03-01T01:24:52;103129.45;;;4.28;56.48
55550;BME280;41397;49.972;18.944;2023-03-01T01:27:53;103126.78;;;4.27;56.70
55550;BME280;41397;49.972;18.944;2023-03-01T01:30:54;103120.48;;;4.26;56.67
55550;BME280;41397;49.972;18.944;2023-03-01T01:33:57;103126.84;;;4.23;56.56
55550;BME280;41397;49.972;18.944;2023-03-01T01:37:01;103127.75;;;4.22;56.74
55550;BME280;41397;49.972;18.944;2023-03-01T01:40:04;103125.91;;;4.25;56.58
55550;BME280;41397;49.972;18.944;2023-03-01T01:46:28;103111.50;;;4.22;57.02
55550;BME280;41397;49.972;18.944;2023-03-01T01:52:48;103113.30;;;4.23;56.85
55550;BME280;41397;49.972;18.944;2023-03-01T01:55:57;103103.43;;;4.19;56.51
55550;BME280;41397;49.972;18.944;2023-03-01T01:59:02;103103.48;;;4.18;56.53
55550;BME280;41397;49.972;18.944;2023-03-01T02:02:04;103102.65;;;4.13;56.80
55550;BME280;41397;49.972;18.944;2023-03-01T02:05:15;103098.18;;;4.10;57.01
55550;BME280;41397;49.972;18.944;2023-03-01T02:08:20;103094.60;;;4.08;56.88
55550;BME280;41397;49.972;18.944;2023-03-01T02:11:23;103099.20;;;4.05;57.14
55550;BME280;41397;49.972;18.944;2023-03-01T02:14:24;103092.91;;;4.03;56.98
55550;BME280;41397;49.972;18.944;2023-03-01T02:17:27;103090.19;;;4.04;57.04
55550;BME280;41397;49.972;18.944;2023-03-01T02:20:38;103081.20;;;4.00;57.12
55550;BME280;41397;49.972;18.944;2023-03-01T02:23:41;103083.84;;;4.04;56.75
55550;BME280;41397;49.972;18.944;2023-03-01T02:26:49;103088.38;;;4.03;57.34
55550;BME280;41397;49.972;18.944;2023-03-01T02:29:53;103090.26;;;3.98;57.04
55550;BME280;41397;49.972;18.944;2023-03-01T02:32:56;103088.43;;;4.00;56.98
55550;BME280;41397;49.972;18.944;2023-03-01T02:36:09;103074.00;;;3.99;57.08
55550;BME280;41397;49.972;18.944;2023-03-01T02:39:25;103073.12;;;3.99;57.25
55550;BME280;41397;49.972;18.944;2023-03-01T02:42:26;103076.78;;;3.96;57.21
55550;BME280;41397;49.972;18.944;2023-03-01T02:45:27;103075.09;;;3.89;57.44
55550;BME280;41397;49.972;18.944;2023-03-01T02:55:03;103074.31;;;3.81;57.67
55550;BME280;41397;49.972;18.944;2023-03-01T02:58:06;103072.50;;;3.82;57.47
55550;BME280;41397;49.972;18.944;2023-03-01T03:01:08;103068.90;;;3.83;57.40
55550;BME280;41397;49.972;18.944;2023-03-01T03:04:17;103077.91;;;3.83;57.32
55550;BME280;41397;49.972;18.944;2023-03-01T03:07:19;103077.95;;;3.80;57.33
55550;BME280;41397;49.972;18.944;2023-03-01T03:10:26;103078.91;;;3.77;57.53
55550;BME280;41397;49.972;18.944;2023-03-01T03:13:27;103078.09;;;3.72;57.46
55550;BME280;41397;49.972;18.944;2023-03-01T03:16:29;103066.42;;;3.69;57.70
55550;BME280;41397;49.972;18.944;2023-03-01T03:19:30;103067.26;;;3.72;57.62
55550;BME280;41397;49.972;18.944;2023-03-01T03:22:32;103075.39;;;3.71;57.53
55550;BME280;41397;49.972;18.944;2023-03-01T03:25:34;103067.31;;;3.69;57.67
55550;BME280;41397;49.972;18.944;2023-03-01T03:28:39;103066.48;;;3.66;58.05
55550;BME280;41397;49.972;18.944;2023-03-01T03:31:41;103069.14;;;3.67;57.73
55550;BME280;41397;49.972;18.944;2023-03-01T03:34:42;103071.90;;;3.63;57.88
55550;BME280;41397;49.972;18.944;2023-03-01T03:37:44;103065.66;;;3.61;57.72
55550;BME280;41397;49.972;18.944;2023-03-01T03:41:07;103071.96;;;3.60;57.87
55550;BME280;41397;49.972;18.944;2023-03-01T03:44:09;103069.31;;;3.56;57.79
55550;BME280;41397;49.972;18.944;2023-03-01T03:47:16;103075.71;;;3.52;57.84
55550;BME280;41397;49.972;18.944;2023-03-01T03:50:18;103073.07;;;3.48;57.97
55550;BME280;41397;49.972;18.944;2023-03-01T03:53:21;103075.78;;;3.46;58.13
55550;BME280;41397;49.972;18.944;2023-03-01T03:56:23;103066.82;;;3.43;57.98
55550;BME280;41397;49.972;18.944;2023-03-01T03:59:27;103058.70;;;3.43;58.25
55550;BME280;41397;49.972;18.944;2023-03-01T04:02:29;103060.59;;;3.38;58.03
55550;BME280;41397;49.972;18.944;2023-03-01T04:05:31;103055.17;;;3.38;58.19
55550;BME280;41397;49.972;18.944;2023-03-01T04:08:32;103053.42;;;3.35;58.23
55550;BME280;41397;49.972;18.944;2023-03-01T04:11:34;103054.28;;;3.39;58.04
55550;BME280;41397;49.972;18.944;2023-03-01T04:14:35;103048.78;;;3.43;58.13
55550;BME280;41397;49.972;18.944;2023-03-01T04:17:37;103051.48;;;3.45;58.16
55550;BME280;41397;49.972;18.944;2023-03-01T04:20:41;103055.95;;;3.46;57.97
55550;BME280;41397;49.972;18.944;2023-03-01T04:23:43;103071.29;;;3.45;57.93
55550;BME280;41397;49.972;18.944;2023-03-01T04:26:45;103074.89;;;3.46;58.15
55550;BME280;41397;49.972;18.944;2023-03-01T04:29:46;103063.17;;;3.45;58.25
55550;BME280;41397;49.972;18.944;2023-03-01T04:32:47;103070.40;;;3.45;57.85
55550;BME280;41397;49.972;18.944;2023-03-01T04:35:51;103081.27;;;3.42;57.95
55550;BME280;41397;49.972;18.944;2023-03-01T04:38:53;103079.47;;;3.41;58.02
55550;BME280;41397;49.972;18.944;2023-03-01T04:41:55;103078.64;;;3.39;58.11
55550;BME280;41397;49.972;18.944;2023-03-01T04:44:56;103080.45;;;3.35;58.05
55550;BME280;41397;49.972;18.944;2023-03-01T04:47:57;103079.62;;;3.33;58.24
55550;BME280;41397;49.972;18.944;2023-03-01T04:51:00;103075.09;;;3.32;58.28
55550;BME280;41397;49.972;18.944;2023-03-01T04:54:01;103080.51;;;3.33;58.28
55550;BME280;41397;49.972;18.944;2023-03-01T04:57:03;103075.20;;;3.26;58.36
55550;BME280;41397;49.972;18.944;2023-03-01T05:00:09;103074.30;;;3.25;58.42
55550;BME280;41397;49.972;18.944;2023-03-01T05:03:24;103071.66;;;3.22;58.58
55550;BME280;41397;49.972;18.944;2023-03-01T05:06:26;103072.50;;;3.26;58.31
55550;BME280;41397;49.972;18.944;2023-03-01T05:09:28;103076.13;;;3.23;58.30
55550;BME280;41397;49.972;18.944;2023-03-01T05:12:30;103063.61;;;3.16;58.69
55550;BME280;41397;49.972;18.944;2023-03-01T05:15:33;103072.55;;;3.21;58.57
55550;BME280;41397;49.972;18.944;2023-03-01T05:18:34;103068.03;;;3.23;58.69
55550;BME280;41397;49.972;18.944;2023-03-01T05:21:36;103062.63;;;3.22;58.69
55550;BME280;41397;49.972;18.944;2023-03-01T05:24:47;103060.84;;;3.22;58.69
55550;BME280;41397;49.972;18.944;2023-03-01T05:27:49;103059.91;;;3.23;58.60
55550;BME280;41397;49.972;18.944;2023-03-01T05:30:50;103059.85;;;3.28;58.43
55550;BME280;41397;49.972;18.944;2023-03-01T05:33:52;103052.59;;;3.30;58.52
55550;BME280;41397;49.972;18.944;2023-03-01T05:36:54;103053.47;;;3.32;58.72
55550;BME280;41397;49.972;18.944;2023-03-01T05:39:55;103060.64;;;3.34;58.61
55550;BME280;41397;49.972;18.944;2023-03-01T05:42:57;103054.23;;;3.42;58.52
55550;BME280;41397;49.972;18.944;2023-03-01T05:45:58;103065.87;;;3.47;58.78
55550;BME280;41397;49.972;18.944;2023-03-01T05:49:00;103072.02;;;3.56;58.85
55550;BME280;41397;49.972;18.944;2023-03-01T05:52:04;103070.97;;;3.65;59.46
55550;BME280;41397;49.972;18.944;2023-03-01T05:55:07;103075.38;;;3.72;59.38
55550;BME280;41397;49.972;18.944;2023-03-01T05:58:14;103067.95;;;3.84;59.71
55550;BME280;41397;49.972;18.944;2023-03-01T06:01:16;103057.90;;;3.92;60.11
55550;BME280;41397;49.972;18.944;2023-03-01T06:04:17;103058.66;;;4.00;59.56
55550;BME280;41397;49.972;18.944;2023-03-01T06:07:25;103062.87;;;4.16;60.05
55550;BME280;41397;49.972;18.944;2023-03-01T06:10:26;103058.12;;;4.29;59.31
55550;BME280;41397;49.972;18.944;2023-03-01T06:13:28;103044.31;;;4.41;59.06
55550;BME280;41397;49.972;18.944;2023-03-01T06:16:34;103053.84;;;4.61;59.31
55550;BME280;41397;49.972;18.944;2023-03-01T06:19:38;103052.80;;;4.70;57.83
55550;BME280;41397;49.972;18.944;2023-03-01T06:22:40;103059.75;;;4.83;57.55
55550;BME280;41397;49.972;18.944;2023-03-01T06:25:42;103053.97;;;4.98;57.28
55550;BME280;41397;49.972;18.944;2023-03-01T06:28:43;103059.96;;;5.12;56.69
55550;BME280;41397;49.972;18.944;2023-03-01T06:31:46;103066.78;;;5.32;56.33
55550;BME280;41397;49.972;18.944;2023-03-01T06:34:48;103059.98;;;5.51;55.63
55550;BME280;41397;49.972;18.944;2023-03-01T06:37:50;103060.48;;;5.67;55.90
55550;BME280;41397;49.972;18.944;2023-03-01T06:40:53;103071.90;;;5.82;55.35
55550;BME280;41397;49.972;18.944;2023-03-01T06:43:57;103067.03;;;5.96;54.88
55550;BME280;41397;49.972;18.944;2023-03-01T06:46:59;103070.55;;;5.99;54.77
55550;BME280;41397;49.972;18.944;2023-03-01T06:50:02;103078.25;;;6.16;54.47
55550;BME280;41397;49.972;18.944;2023-03-01T06:53:04;103084.52;;;6.20;54.48
55550;BME280;41397;49.972;18.944;2023-03-01T06:56:06;103067.77;;;6.35;54.17
55550;BME280;41397;49.972;18.944;2023-03-01T06:59:08;103074.95;;;6.38;54.37
55550;BME280;41397;49.972;18.944;2023-03-01T07:02:14;103071.41;;;6.36;54.62
55550;BME280;41397;49.972;18.944;2023-03-01T07:05:16;103071.84;;;6.52;54.68
55550;BME280;41397;49.972;18.944;2023-03-01T07:08:18;103073.65;;;6.53;54.52
55550;BME280;41397;49.972;18.944;2023-03-01T07:11:25;103065.22;;;6.62;54.54
55550;BME280;41397;49.972;18.944;2023-03-01T07:14:28;103066.93;;;6.66;54.90
55550;BME280;41397;49.972;18.944;2023-03-01T07:17:29;103059.25;;;6.80;54.27
55550;BME280;41397;49.972;18.944;2023-03-01T07:20:31;103055.42;;;6.87;54.13
55550;BME280;41397;49.972;18.944;2023-03-01T07:23:34;103060.48;;;7.00;53.47
55550;BME280;41397;49.972;18.944;2023-03-01T07:26:36;103061.37;;;7.00;53.69
55550;BME280;41397;49.972;18.944;2023-03-01T07:29:38;103064.48;;;7.18;53.49
55550;BME280;41397;49.972;18.944;2023-03-01T07:32:39;103047.95;;;7.24;53.07
55550;BME280;41397;49.972;18.944;2023-03-01T07:35:42;103052.16;;;7.34;52.86
55550;BME280;41397;49.972;18.944;2023-03-01T07:38:43;103044.57;;;7.44;52.99
55550;BME280;41397;49.972;18.944;2023-03-01T07:41:45;103042.27;;;7.58;51.75
55550;BME280;41397;49.972;18.944;2023-03-01T07:44:47;103044.12;;;7.58;51.75
55550;BME280;41397;49.972;18.944;2023-03-01T07:47:53;103040.93;;;7.71;51.78
55550;BME280;41397;49.972;18.944;2023-03-01T07:50:57;103032.02;;;7.66;51.88
55550;BME280;41397;49.972;18.944;2023-03-01T07:53:58;103028.73;;;7.83;51.64
55550;BME280;41397;49.972;18.944;2023-03-01T07:57:00;103022.96;;;7.92;51.89
55550;BME280;41397;49.972;18.944;2023-03-01T08:00:02;103013.56;;;8.01;51.60
55550;BME280;41397;49.972;18.944;2023-03-01T08:03:04;103002.23;;;8.13;50.79
55550;BME280;41397;49.972;18.944;2023-03-01T08:06:10;103000.93;;;8.23;50.92
55550;BME280;41397;49.972;18.944;2023-03-01T08:09:12;102998.12;;;8.27;50.91
55550;BME280;41397;49.972;18.944;2023-03-01T08:12:13;102994.68;;;8.47;50.32
55550;BME280;41397;49.972;18.944;2023-03-01T08:15:17;102994.27;;;8.57;49.62
55550;BME280;41397;49.972;18.944;2023-03-01T08:18:20;102988.44;;;8.66;49.30
55550;BME280;41397;49.972;18.944;2023-03-01T08:21:22;102989.54;;;8.62;48.95
55550;BME280;41397;49.972;18.944;2023-03-01T08:24:24;103000.13;;;8.70;48.98
55550;BME280;41397;49.972;18.944;2023-03-01T08:27:25;102998.24;;;8.72;48.95
55550;BME280;41397;49.972;18.944;2023-03-01T08:30:27;102991.73;;;8.76;49.14
55550;BME280;41397;49.972;18.944;2023-03-01T08:33:29;102986.98;;;8.81;49.24
55550;BME280;41397;49.972;18.944;2023-03-01T08:36:35;102991.17;;;8.90;49.31
55550;BME280;41397;49.972;18.944;2023-03-01T08:39:42;102987.13;;;9.00;49.46
55550;BME280;41397;49.972;18.944;2023-03-01T08:42:43;102987.59;;;9.11;49.26
55550;BME280;41397;49.972;18.944;2023-03-01T08:45:48;102980.59;;;9.04;48.79
55550;BME280;41397;49.972;18.944;2023-03-01T08:48:49;102980.91;;;9.19;48.40
55550;BME280;41397;49.972;18.944;2023-03-01T08:51:51;102987.91;;;9.26;48.41
55550;BME280;41397;49.972;18.944;2023-03-01T08:54:52;102982.95;;;9.36;48.05
55550;BME280;41397;49.972;18.944;2023-03-01T08:57:55;102992.04;;;9.36;48.82
55550;BME280;41397;49.972;18.944;2023-03-01T09:01:00;102986.18;;;9.45;48.51
55550;BME280;41397;49.972;18.944;2023-03-01T09:04:01;102990.64;;;9.48;48.12
55550;BME280;41397;49.972;18.944;2023-03-01T09:07:03;102984.53;;;9.63;48.22
55550;BME280;41397;49.972;18.944;2023-03-01T09:10:05;102997.98;;;9.68;46.26
55550;BME280;41397;49.972;18.944;2023-03-01T09:13:07;102990.61;;;9.70;46.48
55550;BME280;41397;49.972;18.944;2023-03-01T09:16:11;102990.56;;;9.71;46.59
55550;BME280;41397;49.972;18.944;2023-03-01T09:19:13;102981.12;;;9.78;46.24
55550;BME280;41397;49.972;18.944;2023-03-01T09:22:15;102975.13;;;9.91;46.10
55550;BME280;41397;49.972;18.944;2023-03-01T09:25:19;102982.31;;;9.93;45.78
55550;BME280;41397;49.972;18.944;2023-03-01T09:28:20;102977.36;;;9.81;45.47
55550;BME280;41397;49.972;18.944;2023-03-01T09:31:33;102966.84;;;9.92;45.78
55550;BME280;41397;49.972;18.944;2023-03-01T09:34:34;102970.22;;;9.99;46.16
55550;BME280;41397;49.972;18.944;2023-03-01T09:37:46;102970.62;;;10.10;45.86
55550;BME280;41397;49.972;18.944;2023-03-01T09:40:50;102961.30;;;10.14;43.53
55550;BME280;41397;49.972;18.944;2023-03-01T09:43:59;102965.28;;;9.87;43.08
55550;BME280;41397;49.972;18.944;2023-03-01T09:47:18;102973.00;;;9.97;43.27
55550;BME280;41397;49.972;18.944;2023-03-01T09:50:22;102975.46;;;9.83;44.33
55550;BME280;41397;49.972;18.944;2023-03-01T09:53:33;102983.72;;;9.82;44.39
55550;BME280;41397;49.972;18.944;2023-03-01T10:00:00;102975.13;;;9.91;43.87
55550;BME280;41397;49.972;18.944;2023-03-01T10:03:14;102979.45;;;9.96;43.31
55550;BME280;41397;49.972;18.944;2023-03-01T10:06:21;102977.78;;;9.92;42.63
55550;BME280;41397;49.972;18.944;2023-03-01T10:09:32;102973.48;;;9.87;43.09
55550;BME280;41397;49.972;18.944;2023-03-01T10:12:37;102970.27;;;9.97;43.38
55550;BME280;41397;49.972;18.944;2023-03-01T10:15:53;102971.92;;;10.02;42.77
55550;BME280;41397;49.972;18.944;2023-03-01T10:19:04;102963.73;;;10.02;42.76
55550;BME280;41397;49.972;18.944;2023-03-01T10:22:13;102954.13;;;10.12;43.52
55550;BME280;41397;49.972;18.944;2023-03-01T10:25:44;102952.10;;;10.37;43.44
55550;BME280;41397;49.972;18.944;2023-03-01T10:28:40;102944.97;;;10.33;41.19
55550;BME280;41397;49.972;18.944;2023-03-01T10:31:48;102944.92;;;10.35;41.59
55550;BME280;41397;49.972;18.944;2023-03-01T10:34:50;102942.71;;;10.43;41.55
55550;BME280;41397;49.972;18.944;2023-03-01T10:41:06;102925.48;;;10.20;41.64
55550;BME280;41397;49.972;18.944;2023-03-01T10:44:11;102928.42;;;10.36;42.03
55550;BME280;41397;49.972;18.944;2023-03-01T10:47:23;102935.24;;;10.47;41.24
55550;BME280;41397;49.972;18.944;2023-03-01T10:50:25;102940.17;;;10.38;40.86
55550;BME280;41397;49.972;18.944;2023-03-01T10:53:31;102937.63;;;10.54;41.67
55550;BME280;41397;49.972;18.944;2023-03-01T10:59:59;102928.80;;;10.66;40.82
55550;BME280;41397;49.972;18.944;2023-03-01T11:03:04;102915.00;;;10.51;40.93
55550;BME280;41397;49.972;18.944;2023-03-01T11:06:20;102919.86;;;10.63;41.08
55550;BME280;41397;49.972;18.944;2023-03-01T11:09:31;102912.63;;;10.81;40.89
55550;BME280;41397;49.972;18.944;2023-03-01T11:12:39;102920.16;;;10.95;40.72
55550;BME280;41397;49.972;18.944;2023-03-01T11:19:04;102910.02;;;10.97;40.54
55550;BME280;41397;49.972;18.944;2023-03-01T11:22:13;102896.68;;;11.08;40.86
55550;BME280;41397;49.972;18.944;2023-03-01T11:25:15;102897.90;;;11.20;41.13
55550;BME280;41397;49.972;18.944;2023-03-01T11:28:20;102900.37;;;11.07;39.56
55550;BME280;41397;49.972;18.944;2023-03-01T11:31:24;102889.13;;;11.13;39.77
55550;BME280;41397;49.972;18.944;2023-03-01T11:34:42;102879.93;;;11.14;40.26
55550;BME280;41397;49.972;18.944;2023-03-01T11:44:18;102876.15;;;11.17;40.27
55550;BME280;41397;49.972;18.944;2023-03-01T11:47:32;102874.63;;;11.11;39.83
55550;BME280;41397;49.972;18.944;2023-03-01T11:50:41;102886.93;;;11.02;40.03
55550;BME280;41397;49.972;18.944;2023-03-01T11:53:52;102883.05;;;11.06;39.83
55550;BME280;41397;49.972;18.944;2023-03-01T12:07:00;102865.65;;;11.07;38.54
55550;BME280;41397;49.972;18.944;2023-03-01T12:13:40;102858.68;;;11.19;38.79
55550;BME280;41397;49.972;18.944;2023-03-01T12:23:30;102855.95;;;11.19;37.86
55550;BME280;41397;49.972;18.944;2023-03-01T12:26:38;102845.61;;;11.07;38.20
55550;BME280;41397;49.972;18.944;2023-03-01T12:33:08;102829.92;;;11.10;38.39
55550;BME280;41397;49.972;18.944;2023-03-01T12:49:17;102804.30;;;11.11;38.16
55550;BME280;41397;49.972;18.944;2023-03-01T12:55:41;102809.61;;;10.97;37.26
55550;BME280;41397;49.972;18.944;2023-03-01T13:08:58;102803.58;;;11.08;38.09
55550;BME280;41397;49.972;18.944;2023-03-01T13:18:31;102799.77;;;10.93;38.99
55550;BME280;41397;49.972;18.944;2023-03-01T13:21:33;102790.45;;;10.97;38.56
55550;BME280;41397;49.972;18.944;2023-03-01T13:24:40;102788.74;;;10.95;38.18
55550;BME280;41397;49.972;18.944;2023-03-01T13:27:44;102794.98;;;10.79;38.07
55550;BME280;41397;49.972;18.944;2023-03-01T13:30:46;102773.59;;;10.87;38.41
55550;BME280;41397;49.972;18.944;2023-03-01T13:33:52;102773.91;;;10.81;38.23
55550;BME280;41397;49.972;18.944;2023-03-01T13:43:31;102766.67;;;10.98;38.52
55550;BME280;41397;49.972;18.944;2023-03-01T13:46:33;102757.59;;;10.97;38.69
55550;BME280;41397;49.972;18.944;2023-03-01T13:52:52;102763.23;;;10.94;40.02
55550;BME280;41397;49.972;18.944;2023-03-01T13:59:19;102748.00;;;11.06;39.14
55550;BME280;41397;49.972;18.944;2023-03-01T14:02:21;102755.98;;;11.10;38.63
55550;BME280;41397;49.972;18.944;2023-03-01T14:05:23;102742.69;;;11.03;38.79
55550;BME280;41397;49.972;18.944;2023-03-01T14:08:27;102746.31;;;11.03;38.55
55550;BME280;41397;49.972;18.944;2023-03-01T14:18:03;102739.63;;;11.09;39.06
55550;BME280;41397;49.972;18.944;2023-03-01T14:21:08;102734.79;;;11.14;39.42
55550;BME280;41397;49.972;18.944;2023-03-01T14:24:20;102734.08;;;11.10;38.68
55550;BME280;41397;49.972;18.944;2023-03-01T14:27:33;102730.42;;;11.10;39.14
55550;BME280;41397;49.972;18.944;2023-03-01T14:30:46;102719.47;;;11.10;39.62
55550;BME280;41397;49.972;18.944;2023-03-01T14:33:56;102721.83;;;11.00;39.71
55550;BME280;41397;49.972;18.944;2023-03-01T14:40:21;102715.15;;;11.06;40.53
55550;BME280;41397;49.972;18.944;2023-03-01T14:43:24;102718.43;;;11.13;40.59
55550;BME280;41397;49.972;18.944;2023-03-01T14:49:40;102719.40;;;11.11;40.75
55550;BME280;41397;49.972;18.944;2023-03-01T14:52:45;102728.19;;;11.01;41.40
55550;BME280;41397;49.972;18.944;2023-03-01T14:55:52;102728.11;;;11.02;42.50
55550;BME280;41397;49.972;18.944;2023-03-01T14:58:57;102735.20;;;10.89;42.10
55550;BME280;41397;49.972;18.944;2023-03-01T15:02:00;102728.65;;;10.74;42.75
55550;BME280;41397;49.972;18.944;2023-03-01T15:05:09;102725.52;;;10.82;42.79
55550;BME280;41397;49.972;18.944;2023-03-01T15:08:18;102723.92;;;10.78;42.81
55550;BME280;41397;49.972;18.944;2023-03-01T15:11:23;102721.33;;;10.75;43.05
55550;BME280;41397;49.972;18.944;2023-03-01T15:14:38;102712.00;;;10.61;44.11
55550;BME280;41397;49.972;18.944;2023-03-01T15:17:37;102713.70;;;10.64;44.05
55550;BME280;41397;49.972;18.944;2023-03-01T15:20:40;102710.70;;;10.69;44.11
55550;BME280;41397;49.972;18.944;2023-03-01T15:23:41;102724.28;;;10.53;44.10
55550;BME280;41397;49.972;18.944;2023-03-01T15:27:00;102729.62;;;10.56;44.62
55550;BME280;41397;49.972;18.944;2023-03-01T15:36:41;102726.39;;;10.48;44.06
55550;BME280;41397;49.972;18.944;2023-03-01T15:42:55;102721.79;;;10.48;44.25
55550;BME280;41397;49.972;18.944;2023-03-01T15:45:59;102726.45;;;10.46;44.76
55550;BME280;41397;49.972;18.944;2023-03-01T15:49:02;102721.95;;;10.45;44.69
55550;BME280;41397;49.972;18.944;2023-03-01T15:52:12;102718.41;;;10.43;44.51
55550;BME280;41397;49.972;18.944;2023-03-01T15:55:22;102723.14;;;10.39;44.46
55550;BME280;41397;49.972;18.944;2023-03-01T15:58:25;102717.03;;;10.34;44.50
55550;BME280;41397;49.972;18.944;2023-03-01T16:01:27;102723.44;;;10.33;44.52
55550;BME280;41397;49.972;18.944;2023-03-01T16:04:29;102729.87;;;10.32;44.95
55550;BME280;41397;49.972;18.944;2023-03-01T16:07:31;102728.11;;;10.31;45.12
55550;BME280;41397;49.972;18.944;2023-03-01T16:10:33;102722.64;;;10.31;45.02
55550;BME280;41397;49.972;18.944;2023-03-01T16:13:35;102717.23;;;10.30;45.53
55550;BME280;41397;49.972;18.944;2023-03-01T16:16:37;102723.59;;;10.30;45.26
55550;BME280;41397;49.972;18.944;2023-03-01T16:19:38;102720.79;;;10.32;45.63
55550;BME280;41397;49.972;18.944;2023-03-01T16:22:44;102719.16;;;10.28;45.41
55550;BME280;41397;49.972;18.944;2023-03-01T16:25:46;102716.48;;;10.26;45.61
55550;BME280;41397;49.972;18.944;2023-03-01T16:28:47;102715.58;;;10.26;45.87
55550;BME280;41397;49.972;18.944;2023-03-01T16:31:49;102706.64;;;10.22;45.91
55550;BME280;41397;49.972;18.944;2023-03-01T16:34:50;102719.66;;;10.17;45.43
55550;BME280;41397;49.972;18.944;2023-03-01T16:37:52;102723.42;;;10.14;45.46
55550;BME280;41397;49.972;18.944;2023-03-01T16:42:08;102716.56;;;10.06;45.26
55550;BME280;41397;49.972;18.944;2023-03-01T16:45:10;102724.93;;;10.03;45.42
55550;BME280;41397;49.972;18.944;2023-03-01T16:48:12;102725.07;;;9.99;45.09
55550;BME280;41397;49.972;18.944;2023-03-01T16:51:16;102730.32;;;9.85;45.19
55550;BME280;41397;49.972;18.944;2023-03-01T16:54:18;102735.64;;;9.88;45.12
55550;BME280;41397;49.972;18.944;2023-03-01T16:57:19;102736.89;;;9.81;45.40
55550;BME280;41397;49.972;18.944;2023-03-01T17:00:21;102745.16;;;9.80;45.45
55550;BME280;41397;49.972;18.944;2023-03-01T17:03:25;102739.19;;;9.71;45.79
55550;BME280;41397;49.972;18.944;2023-03-01T17:06:31;102749.28;;;9.69;46.10
55550;BME280;41397;49.972;18.944;2023-03-01T17:09:37;102735.51;;;9.52;46.46
55550;BME280;41397;49.972;18.944;2023-03-01T17:12:38;102746.58;;;9.49;46.62
55550;BME280;41397;49.972;18.944;2023-03-01T17:15:40;102747.75;;;9.43;46.77
55550;BME280;41397;49.972;18.944;2023-03-01T17:18:42;102750.57;;;9.42;46.84
55550;BME280;41397;49.972;18.944;2023-03-01T17:21:44;102753.30;;;9.42;46.61
55550;BME280;41397;49.972;18.944;2023-03-01T17:24:46;102762.57;;;9.38;46.84
55550;BME280;41397;49.972;18.944;2023-03-01T17:27:50;102764.41;;;9.37;46.74
55550;BME280;41397;49.972;18.944;2023-03-01T17:30:53;102760.12;;;9.31;47.03
55550;BME280;41397;49.972;18.944;2023-03-01T17:33:55;102759.52;;;9.25;46.93
55550;BME280;41397;49.972;18.944;2023-03-01T17:36:57;102763.33;;;9.21;47.05
55550;BME280;41397;49.972;18.944;2023-03-01T17:39:59;102768.12;;;9.16;47.06
55550;BME280;41397;49.972;18.944;2023-03-01T17:43:01;102766.36;;;9.15;46.97
55550;BME280;41397;49.972;18.944;2023-03-01T17:46:06;102767.52;;;9.09;46.93
55550;BME280;41397;49.972;18.944;2023-03-01T17:49:08;102763.91;;;9.08;47.07
55550;BME280;41397;49.972;18.944;2023-03-01T17:52:10;102766.82;;;9.04;47.12
55550;BME280;41397;49.972;18.944;2023-03-01T17:55:11;102756.18;;;8.98;47.47
55550;BME280;41397;49.972;18.944;2023-03-01T17:58:14;102769.05;;;8.94;47.82
55550;BME280;41397;49.972;18.944;2023-03-01T18:01:20;102757.53;;;8.87;47.91
55550;BME280;41397;49.972;18.944;2023-03-01T18:04:23;102753.14;;;8.83;47.70
55550;BME280;41397;49.972;18.944;2023-03-01T18:07:33;102763.35;;;8.78;48.09